Time;durP1;ratioP1;P1;durP2;ratioP2;P2;SDS_P1;SDS_P2;PMS_P1;PMS_P2;Temp;Humidity;BMP_temperature;BMP_pressure;BME280_temperature;BME280_humidity;BME280_pressure;Samples;Min_cycle;Max_cycle;Signal;HPM_P1;HPM_P2
2023/10/01 00:02:20;;;;;;;3.90;3.50;;;22.80;58.10;;;;;;5091107;28;20495;-69
2023/10/01 00:04:46;;;;;;;3.70;3.00;;;22.80;58.10;;;;;;5091321;28;20180;-68
2023/10/01 00:07:11;;;;;;;3.70;3.33;;;22.80;58.10;;;;;;5090904;28;20174;-67
2023/10/01 00:09:37;;;;;;;3.73;3.40;;;22.80;58.70;;;;;;5090982;28;20436;-65
2023/10/01 00:12:03;;;;;;;4.97;3.97;;;22.80;58.10;;;;;;5090955;28;20189;-66
2023/10/01 00:14:29;;;;;;;4.70;3.93;;;22.80;58.10;;;;;;5091240;28;20754;-66
2023/10/01 00:16:54;;;;;;;3.80;3.40;;;22.80;58.10;;;;;;5090971;28;20495;-65
2023/10/01 00:19:20;;;;;;;3.93;3.50;;;22.80;58.10;;;;;;5090869;28;20572;-67
2023/10/01 00:21:46;;;;;;;3.63;3.30;;;22.80;58.10;;;;;;5091171;28;20178;-67
2023/10/01 00:24:11;;;;;;;3.87;3.40;;;22.80;58.10;;;;;;5089941;28;20281;-67
2023/10/01 00:26:37;;;;;;;3.37;3.07;;;22.80;58.10;;;;;;5090832;28;20650;-67
2023/10/01 00:29:03;;;;;;;4.87;4.00;;;22.80;58.10;;;;;;5091033;28;20177;-68
2023/10/01 00:31:29;;;;;;;3.50;3.20;;;22.80;58.10;;;;;;5090738;28;20198;-67
2023/10/01 00:33:55;;;;;;;3.77;3.20;;;22.80;58.10;;;;;;5090658;28;20476;-66
2023/10/01 00:36:20;;;;;;;3.73;3.40;;;22.80;58.10;;;;;;5090723;28;20624;-68
2023/10/01 00:38:48;;;;;;;4.10;3.47;;;22.80;58.20;;;;;;5090733;28;20178;-67
2023/10/01 00:41:15;;;;;;;4.50;4.10;;;22.80;58.10;;;;;;5090681;28;20256;-67
2023/10/01 00:43:41;;;;;;;3.33;3.03;;;22.80;58.10;;;;;;5090629;28;20435;-67
2023/10/01 00:46:08;;;;;;;5.43;3.77;;;22.80;58.20;;;;;;5090579;28;20424;-68
2023/10/01 00:48:34;;;;;;;4.10;3.70;;;22.80;58.10;;;;;;5090663;28;20407;-68
2023/10/01 00:51:04;;;;;;;4.23;3.77;;;22.80;58.10;;;;;;5093719;28;20456;-67
2023/10/01 00:53:31;;;;;;;3.37;3.07;;;22.80;58.10;;;;;;5094561;28;20480;-67
2023/10/01 00:55:59;;;;;;;3.87;3.47;;;22.80;58.10;;;;;;5094489;28;20437;-68
2023/10/01 00:58:25;;;;;;;3.73;3.40;;;22.80;58.20;;;;;;5094471;28;20411;-68
2023/10/01 01:00:52;;;;;;;3.87;3.37;;;22.80;58.20;;;;;;5094396;28;20412;-69
2023/10/01 01:03:19;;;;;;;3.90;3.50;;;22.80;58.20;;;;;;5094375;28;20902;-67
2023/10/01 01:06:13;;;;;;;3.77;3.20;;;22.80;58.20;;;;;;5094324;28;20950;-68
2023/10/01 01:08:47;;;;;;;3.20;2.90;;;22.80;58.10;;;;;;5094291;28;20443;-67
2023/10/01 01:11:17;;;;;;;5.07;3.43;;;22.80;58.20;;;;;;5094195;28;20527;-67
2023/10/01 01:13:43;;;;;;;3.87;3.30;;;22.80;58.20;;;;;;5094108;28;20458;-67
2023/10/01 01:16:10;;;;;;;3.53;3.10;;;22.80;58.20;;;;;;5094142;28;20414;-67
2023/10/01 01:18:36;;;;;;;5.43;3.27;;;22.70;58.10;;;;;;5094107;28;20407;-67
2023/10/01 01:21:09;;;;;;;4.23;3.60;;;22.80;58.20;;;;;;5093971;28;20922;-68
2023/10/01 01:23:35;;;;;;;3.83;3.30;;;22.80;58.20;;;;;;5094030;28;20509;-68
2023/10/01 01:26:02;;;;;;;3.70;3.10;;;22.80;58.20;;;;;;5094032;28;20453;-67
2023/10/01 01:28:30;;;;;;;4.70;3.60;;;22.80;58.20;;;;;;5094011;28;20537;-69
2023/10/01 01:30:58;;;;;;;3.40;3.10;;;22.80;58.20;;;;;;5093852;28;20537;-68
2023/10/01 01:33:31;;;;;;;4.13;3.30;;;22.70;58.10;;;;;;5093900;28;20796;-67
2023/10/01 01:36:03;;;;;;;3.23;2.93;;;22.70;58.10;;;;;;5093960;28;20737;-67
2023/10/01 01:38:31;;;;;;;3.67;3.00;;;22.70;58.10;;;;;;5093843;28;21284;-68
2023/10/01 01:40:57;;;;;;;3.20;2.90;;;22.70;58.10;;;;;;5093802;28;20415;-68
2023/10/01 01:43:22;;;;;;;2.90;2.70;;;22.70;58.10;;;;;;5093682;28;21019;-67
2023/10/01 01:45:55;;;;;;;3.77;3.37;;;22.70;58.10;;;;;;5093685;28;20180;-69
2023/10/01 01:51:00;;;;;;;3.77;3.37;;;22.70;58.10;;;;;;5093896;28;20442;-67
2023/10/01 01:53:34;;;;;;;3.73;3.30;;;22.70;58.10;;;;;;5093553;28;21276;-68
2023/10/01 01:56:04;;;;;;;4.63;3.00;;;22.70;58.10;;;;;;5093385;28;20408;-67
2023/10/01 01:58:32;;;;;;;4.20;3.40;;;22.70;58.10;;;;;;5093669;28;20396;-67
2023/10/01 02:01:08;;;;;;;3.93;3.53;;;22.70;58.20;;;;;;5092924;28;20486;-67
2023/10/01 02:03:35;;;;;;;3.23;2.90;;;22.70;58.10;;;;;;5093258;28;20510;-68
2023/10/01 02:06:01;;;;;;;3.57;3.27;;;22.70;58.10;;;;;;5093238;28;20403;-68
2023/10/01 02:11:13;;;;;;;4.00;3.30;;;22.70;58.10;;;;;;5093086;28;20450;-67
2023/10/01 02:13:45;;;;;;;4.80;3.50;;;22.70;58.10;;;;;;5093113;28;20465;-67
2023/10/01 02:21:52;;;;;;;2.90;2.60;;;22.70;58.10;;;;;;5093254;28;20395;-68
2023/10/01 02:24:22;;;;;;;3.83;3.50;;;22.70;58.20;;;;;;5092934;28;21080;-67
2023/10/01 02:26:53;;;;;;;4.93;3.50;;;22.70;58.20;;;;;;5092909;28;20400;-68
2023/10/01 02:29:24;;;;;;;3.33;3.03;;;22.70;58.20;;;;;;5092888;28;20385;-68
2023/10/01 02:31:56;;;;;;;3.47;3.17;;;22.70;58.20;;;;;;5092814;28;20944;-68
2023/10/01 02:34:23;;;;;;;3.13;2.83;;;22.70;58.20;;;;;;5092925;28;20431;-68
2023/10/01 02:36:49;;;;;;;3.90;3.10;;;22.70;58.20;;;;;;5093001;28;20507;-68
2023/10/01 02:39:27;;;;;;;3.37;3.07;;;22.70;58.20;;;;;;5092693;28;20541;-68
2023/10/01 02:44:40;;;;;;;4.10;3.70;;;22.70;58.20;;;;;;5092450;28;20423;-67
2023/10/01 02:47:16;;;;;;;3.20;2.50;;;22.70;58.20;;;;;;5092469;28;20403;-67
2023/10/01 02:49:49;;;;;;;3.47;3.17;;;22.70;58.20;;;;;;5092537;28;20388;-67
2023/10/01 02:52:18;;;;;;;2.97;2.67;;;22.70;58.20;;;;;;5092412;28;20448;-66
2023/10/01 02:54:47;;;;;;;3.40;3.10;;;22.70;58.20;;;;;;5091177;28;20893;-69
2023/10/01 02:57:23;;;;;;;3.40;3.10;;;22.70;58.20;;;;;;5092261;28;20458;-67
2023/10/01 03:02:38;;;;;;;3.00;2.70;;;22.70;58.20;;;;;;5092358;28;20394;-68
2023/10/01 03:05:06;;;;;;;3.53;3.23;;;22.70;58.20;;;;;;5092319;28;20787;-68
2023/10/01 03:07:45;;;;;;;3.10;2.63;;;22.70;58.20;;;;;;5092110;28;20416;-68
2023/10/01 03:10:25;;;;;;;3.00;2.80;;;22.70;58.20;;;;;;5091922;28;20820;-67
2023/10/01 03:13:03;;;;;;;2.70;2.40;;;22.70;58.20;;;;;;5091274;28;20481;-68
2023/10/01 03:15:35;;;;;;;3.43;2.73;;;22.70;58.20;;;;;;5091802;28;20491;-68
2023/10/01 03:18:08;;;;;;;3.50;3.00;;;22.70;58.20;;;;;;5091905;28;20396;-67
2023/10/01 03:23:07;;;;;;;3.20;2.90;;;22.70;58.20;;;;;;5091900;28;20489;-67
2023/10/01 03:25:55;;;;;;;3.20;2.90;;;22.70;58.20;;;;;;5091633;28;20412;-67
2023/10/01 03:28:28;;;;;;;3.53;3.10;;;22.70;58.20;;;;;;5090302;28;20436;-68
2023/10/01 03:31:06;;;;;;;3.20;2.90;;;22.70;58.30;;;;;;5091744;28;20447;-69
2023/10/01 03:33:33;;;;;;;4.90;3.10;;;22.70;58.30;;;;;;5091529;28;20419;-67
2023/10/01 03:35:58;;;;;;;3.77;3.20;;;22.70;58.30;;;;;;5091416;28;20502;-68
2023/10/01 03:38:25;;;;;;;3.00;2.60;;;22.70;58.20;;;;;;5091479;28;20487;-67
2023/10/01 03:41:00;;;;;;;3.33;3.03;;;22.70;58.20;;;;;;5091439;28;20561;-67
2023/10/01 03:43:35;;;;;;;3.00;2.70;;;22.70;58.30;;;;;;5091293;28;20435;-68
2023/10/01 03:46:50;;;;;;;2.93;2.60;;;22.70;58.30;;;;;;5091384;28;20415;-68
2023/10/01 03:48:58;;;;;;;4.30;3.40;;;22.70;58.30;;;;;;5088083;28;20447;-68
2023/10/01 03:54:13;;;;;;;4.30;3.67;;;22.70;58.30;;;;;;5091168;28;20484;-67
2023/10/01 03:56:43;;;;;;;4.00;3.30;;;22.70;58.30;;;;;;5091168;28;20419;-67
2023/10/01 03:59:15;;;;;;;3.07;2.77;;;22.70;58.30;;;;;;5091093;28;20453;-67
2023/10/01 04:02:00;;;;;;;3.50;3.07;;;22.70;58.30;;;;;;5091136;28;20495;-68
2023/10/01 04:07:11;;;;;;;3.30;3.00;;;22.70;58.30;;;;;;5091088;28;20399;-69
2023/10/01 04:09:46;;;;;;;3.53;3.23;;;22.70;58.30;;;;;;5091173;28;20442;-69
2023/10/01 04:12:19;;;;;;;3.03;2.53;;;22.70;58.30;;;;;;5090892;28;20224;-68
2023/10/01 04:14:48;;;;;;;2.93;2.63;;;22.60;58.20;;;;;;5090940;28;20388;-68
2023/10/01 04:17:17;;;;;;;3.70;3.30;;;22.60;58.30;;;;;;5090925;28;20807;-68
2023/10/01 04:19:44;;;;;;;4.00;3.10;;;22.70;58.30;;;;;;5090753;28;20423;-68
2023/10/01 04:22:10;;;;;;;2.67;2.47;;;22.60;58.30;;;;;;5090821;28;21235;-67
2023/10/01 04:24:36;;;;;;;3.33;3.03;;;22.70;58.30;;;;;;5092545;28;20459;-69
2023/10/01 04:27:18;;;;;;;2.97;2.60;;;22.70;58.30;;;;;;5097559;28;20174;-69
2023/10/01 04:29:57;;;;;;;3.40;2.70;;;22.70;58.30;;;;;;5097656;28;20767;-67
2023/10/01 04:32:27;;;;;;;3.07;2.77;;;22.60;58.20;;;;;;5097403;28;20438;-67
2023/10/01 04:34:53;;;;;;;3.03;2.73;;;22.60;58.30;;;;;;5097477;28;20439;-67
2023/10/01 04:37:36;;;;;;;2.60;2.40;;;22.60;58.20;;;;;;5097477;28;20486;-68
2023/10/01 04:40:06;;;;;;;3.03;2.70;;;22.60;58.20;;;;;;5097500;28;20388;-67
2023/10/01 04:42:32;;;;;;;3.60;3.07;;;22.60;58.30;;;;;;5097348;28;20411;-67
2023/10/01 04:44:59;;;;;;;4.37;3.13;;;22.60;58.30;;;;;;5097412;28;20891;-67
2023/10/01 04:47:31;;;;;;;3.17;2.87;;;22.60;58.20;;;;;;5097387;28;20967;-68
2023/10/01 04:49:57;;;;;;;6.67;4.37;;;22.60;58.20;;;;;;5097402;28;20500;-68
2023/10/01 04:52:24;;;;;;;2.93;2.63;;;22.60;58.30;;;;;;5097206;28;20463;-67
2023/10/01 04:54:49;;;;;;;3.13;2.83;;;22.60;58.20;;;;;;5097361;28;20418;-67
2023/10/01 04:57:16;;;;;;;3.67;3.30;;;22.60;58.30;;;;;;5097311;28;20865;-67
2023/10/01 04:59:56;;;;;;;4.43;3.13;;;22.60;58.20;;;;;;5097238;28;20273;-68
2023/10/01 05:02:22;;;;;;;3.43;3.00;;;22.60;58.20;;;;;;5097271;28;20391;-69
2023/10/01 05:04:47;;;;;;;3.33;3.03;;;22.60;58.30;;;;;;5097190;28;20411;-68
2023/10/01 05:07:15;;;;;;;3.10;2.77;;;22.60;58.30;;;;;;5097162;28;20165;-67
2023/10/01 05:09:43;;;;;;;3.20;2.87;;;22.60;58.30;;;;;;5097140;28;20185;-68
2023/10/01 05:12:11;;;;;;;3.40;2.80;;;22.60;58.30;;;;;;5097080;28;20553;-67
2023/10/01 05:14:59;;;;;;;3.40;3.00;;;22.60;58.30;;;;;;5097059;28;20438;-68
2023/10/01 05:17:22;;;;;;;3.43;2.90;;;22.60;58.30;;;;;;5096977;28;20614;-68
2023/10/01 05:19:51;;;;;;;4.33;3.57;;;22.60;58.20;;;;;;5097082;28;20506;-68
2023/10/01 05:22:17;;;;;;;3.63;3.33;;;22.60;58.30;;;;;;5097169;28;20549;-68
2023/10/01 05:24:48;;;;;;;3.87;2.80;;;22.60;58.30;;;;;;5096929;28;20525;-68
2023/10/01 05:27:19;;;;;;;3.60;2.90;;;22.60;58.30;;;;;;5097298;28;20172;-67
2023/10/01 05:29:46;;;;;;;3.40;3.10;;;22.60;58.30;;;;;;5096970;28;20387;-68
2023/10/01 05:32:18;;;;;;;3.60;3.30;;;22.60;58.30;;;;;;5097160;28;21139;-69
2023/10/01 05:34:46;;;;;;;4.33;2.80;;;22.60;58.30;;;;;;5096903;28;20837;-67
2023/10/01 05:37:20;;;;;;;3.37;3.07;;;22.60;58.30;;;;;;5093542;28;20774;-67
2023/10/01 05:39:55;;;;;;;2.93;2.70;;;22.60;58.30;;;;;;5094013;28;20494;-68
2023/10/01 05:42:25;;;;;;;3.67;3.00;;;22.60;58.30;;;;;;5093615;28;20399;-67
2023/10/01 05:44:52;;;;;;;3.30;2.70;;;22.60;58.30;;;;;;5093593;28;20416;-67
2023/10/01 05:47:17;;;;;;;3.40;3.10;;;22.60;58.30;;;;;;5093551;28;20411;-68
2023/10/01 05:49:49;;;;;;;3.37;3.00;;;22.60;58.30;;;;;;5093586;28;20410;-68
2023/10/01 05:52:17;;;;;;;2.70;2.50;;;22.60;58.30;;;;;;5093495;28;20272;-68
2023/10/01 05:54:52;;;;;;;3.77;2.90;;;22.60;58.30;;;;;;5093447;28;20427;-67
2023/10/01 05:57:18;;;;;;;2.70;2.50;;;22.60;58.30;;;;;;5093402;28;20443;-68
2023/10/01 05:59:56;;;;;;;3.27;2.97;;;22.60;58.30;;;;;;5093431;28;20896;-68
2023/10/01 06:02:47;;;;;;;2.83;2.63;;;22.60;58.30;;;;;;5093215;28;20441;-67
2023/10/01 06:05:25;;;;;;;3.93;3.13;;;22.60;58.30;;;;;;5093260;28;20483;-67
2023/10/01 06:07:54;;;;;;;3.60;3.13;;;22.60;58.30;;;;;;5093245;28;20392;-67
2023/10/01 06:10:26;;;;;;;4.73;3.37;;;22.60;58.40;;;;;;5093062;28;20944;-67
2023/10/01 06:12:56;;;;;;;3.37;3.07;;;22.60;58.40;;;;;;5091621;28;20436;-67
2023/10/01 06:15:25;;;;;;;4.80;3.07;;;22.60;58.40;;;;;;5093091;28;20395;-68
2023/10/01 06:17:51;;;;;;;4.07;3.10;;;22.60;58.40;;;;;;5092986;28;20396;-68
2023/10/01 06:20:26;;;;;;;3.37;3.07;;;22.60;58.40;;;;;;5093114;28;20431;-68
2023/10/01 06:22:54;;;;;;;2.73;2.53;;;22.60;58.50;;;;;;5092929;28;20477;-69
2023/10/01 06:25:37;;;;;;;3.07;2.77;;;22.60;58.40;;;;;;5092916;28;20408;-68
2023/10/01 06:28:07;;;;;;;3.23;2.93;;;22.60;58.50;;;;;;5092866;28;20478;-68
2023/10/01 06:30:34;;;;;;;3.43;3.10;;;22.60;58.50;;;;;;5092785;28;20460;-68
2023/10/01 06:32:59;;;;;;;2.97;2.73;;;22.60;58.50;;;;;;5092702;28;20423;-68
2023/10/01 06:35:26;;;;;;;3.00;2.80;;;22.60;58.50;;;;;;5092623;28;20828;-69
2023/10/01 06:37:53;;;;;;;2.90;2.60;;;22.60;58.70;;;;;;5092635;28;20191;-67
2023/10/01 06:40:31;;;;;;;3.07;2.60;;;22.60;58.50;;;;;;5092640;28;20435;-66
2023/10/01 06:43:00;;;;;;;4.70;2.90;;;22.60;58.50;;;;;;5092602;28;20508;-68
2023/10/01 06:45:41;;;;;;;2.87;2.57;;;22.60;58.50;;;;;;5092679;28;20923;-67
2023/10/01 06:48:14;;;;;;;3.20;2.90;;;22.60;58.50;;;;;;5094545;28;20833;-66
2023/10/01 06:50:40;;;;;;;3.17;2.87;;;22.60;58.60;;;;;;5094492;28;20473;-67
2023/10/01 06:53:07;;;;;;;3.20;2.90;;;22.60;58.60;;;;;;5093446;28;20470;-66
2023/10/01 06:55:36;;;;;;;3.83;3.40;;;22.60;58.50;;;;;;5094851;28;20407;-67
2023/10/01 06:58:07;;;;;;;2.97;2.63;;;22.60;58.50;;;;;;5094890;28;20410;-67
2023/10/01 07:00:35;;;;;;;3.83;3.13;;;22.60;58.50;;;;;;5092838;28;21004;-67
2023/10/01 07:03:17;;;;;;;3.13;2.80;;;22.60;58.50;;;;;;5094046;28;20438;-67
2023/10/01 07:05:47;;;;;;;3.30;3.00;;;22.60;58.50;;;;;;5093046;28;20407;-67
2023/10/01 07:08:16;;;;;;;3.00;2.70;;;22.60;58.50;;;;;;5093619;28;20415;-67
2023/10/01 07:10:42;;;;;;;3.37;3.07;;;22.60;58.50;;;;;;5093171;28;20975;-68
2023/10/01 07:13:10;;;;;;;3.20;2.90;;;22.60;58.50;;;;;;5093082;28;20492;-67
2023/10/01 07:15:39;;;;;;;3.20;2.80;;;22.60;58.40;;;;;;5093124;28;20259;-68
2023/10/01 07:18:15;;;;;;;4.13;3.20;;;22.60;58.30;;;;;;5092805;28;20404;-67
2023/10/01 07:20:44;;;;;;;3.50;3.20;;;22.60;58.30;;;;;;5093033;28;20435;-68
2023/10/01 07:23:13;;;;;;;4.17;3.77;;;22.60;58.30;;;;;;5092978;28;20440;-67
2023/10/01 07:25:42;;;;;;;3.50;3.20;;;22.60;58.20;;;;;;5092548;28;20420;-68
2023/10/01 07:28:12;;;;;;;3.73;2.83;;;22.60;58.20;;;;;;5093004;28;20892;-68
2023/10/01 07:30:45;;;;;;;4.43;3.17;;;22.60;58.20;;;;;;5092855;28;20542;-67
2023/10/01 07:33:14;;;;;;;3.53;2.87;;;22.60;58.20;;;;;;5092682;28;20420;-68
2023/10/01 07:35:45;;;;;;;3.53;3.17;;;22.60;58.20;;;;;;5074866;28;20419;-66
2023/10/01 07:38:14;;;;;;;3.50;3.17;;;22.60;58.20;;;;;;5092719;28;20900;-67
2023/10/01 07:40:57;;;;;;;3.47;3.17;;;22.60;58.20;;;;;;5092815;28;20915;-67
2023/10/01 07:43:30;;;;;;;3.50;2.90;;;22.60;58.20;;;;;;5092671;28;20441;-67
2023/10/01 07:45:58;;;;;;;5.40;3.67;;;22.60;58.20;;;;;;5093021;28;20442;-67
2023/10/01 07:48:35;;;;;;;2.90;2.60;;;22.60;58.30;;;;;;5092989;28;20407;-67
2023/10/01 07:51:03;;;;;;;3.10;2.80;;;22.60;58.30;;;;;;5092645;28;20458;-65
2023/10/01 07:53:33;;;;;;;3.20;2.87;;;22.60;58.30;;;;;;5092532;28;20457;-65
2023/10/01 07:56:02;;;;;;;3.90;2.60;;;22.60;58.30;;;;;;5092487;28;20442;-67
2023/10/01 07:58:48;;;;;;;5.33;3.40;;;22.60;58.30;;;;;;5092386;28;20431;-66
2023/10/01 08:01:37;;;;;;;3.63;3.33;;;22.60;58.30;;;;;;5091710;28;20423;-69
2023/10/01 08:04:06;;;;;;;5.20;3.63;;;22.60;58.30;;;;;;5092505;28;20415;-67
2023/10/01 08:06:41;;;;;;;3.40;3.10;;;22.60;58.30;;;;;;5092301;28;20415;-67
2023/10/01 08:09:11;;;;;;;5.33;2.97;;;22.60;58.30;;;;;;5092447;28;20391;-68
2023/10/01 08:11:58;;;;;;;3.50;3.03;;;22.60;58.30;;;;;;5092171;28;20444;-67
2023/10/01 08:14:26;;;;;;;4.63;3.90;;;22.60;58.30;;;;;;5091746;28;20473;-67
2023/10/01 08:16:57;;;;;;;3.40;3.10;;;22.60;58.20;;;;;;5092048;28;20420;-66
2023/10/01 08:19:41;;;;;;;4.00;3.00;;;22.60;58.20;;;;;;5091953;28;20384;-66
2023/10/01 08:22:13;;;;;;;3.13;2.83;;;22.60;58.30;;;;;;5092244;28;20768;-66
2023/10/01 08:24:39;;;;;;;3.30;3.00;;;22.60;58.30;;;;;;5092685;28;20521;-66
2023/10/01 08:27:12;;;;;;;3.50;3.20;;;22.60;58.30;;;;;;5092651;28;20408;-66
2023/10/01 08:32:22;;;;;;;4.50;3.20;;;22.60;58.20;;;;;;5082900;28;20594;-64
2023/10/01 08:35:05;;;;;;;3.50;2.67;;;22.60;58.20;;;;;;5080836;28;20904;-67
2023/10/01 08:37:31;;;;;;;3.80;3.40;;;22.60;58.20;;;;;;5078929;28;20170;-66
2023/10/01 08:40:00;;;;;;;3.33;2.97;;;22.50;58.10;;;;;;5080680;28;20412;-67
2023/10/01 08:42:29;;;;;;;3.33;3.03;;;22.60;58.20;;;;;;5080916;28;20413;-66
2023/10/01 08:45:08;;;;;;;3.90;3.60;;;22.60;58.10;;;;;;5082576;28;20403;-67
2023/10/01 08:47:37;;;;;;;3.57;2.80;;;22.60;58.10;;;;;;5082345;28;20900;-67
2023/10/01 08:50:26;;;;;;;3.97;3.27;;;22.60;58.10;;;;;;5080085;28;20895;-67
2023/10/01 08:52:56;;;;;;;4.23;3.20;;;22.60;58.10;;;;;;5081192;28;20809;-67
2023/10/01 08:55:26;;;;;;;3.77;3.30;;;22.60;58.10;;;;;;5081311;28;20807;-67
2023/10/01 08:57:55;;;;;;;4.30;3.80;;;22.60;58.10;;;;;;5081566;28;20409;-66
2023/10/01 09:00:24;;;;;;;4.23;3.40;;;22.60;58.10;;;;;;5080930;28;20400;-66
2023/10/01 09:03:10;;;;;;;3.80;3.17;;;22.60;58.10;;;;;;5088262;28;21017;-64
2023/10/01 09:05:36;;;;;;;4.07;3.10;;;22.60;58.10;;;;;;5082474;28;20426;-64
2023/10/01 09:08:26;;;;;;;5.10;3.43;;;22.60;58.10;;;;;;5079425;28;20447;-66
2023/10/01 09:10:56;;;;;;;4.70;3.53;;;22.60;58.10;;;;;;5081653;28;20476;-66
2023/10/01 09:13:22;;;;;;;6.40;3.47;;;22.50;58.10;;;;;;5084229;28;20436;-67
2023/10/01 09:15:55;;;;;;;4.20;3.60;;;22.60;58.20;;;;;;5086339;28;20460;-68
2023/10/01 09:18:25;;;;;;;4.20;3.67;;;22.60;58.10;;;;;;5083645;28;20940;-67
2023/10/01 09:23:56;;;;;;;5.10;3.37;;;22.60;58.00;;;;;;5075381;28;20428;-66
2023/10/01 09:26:53;;;;;;;3.67;3.33;;;22.60;58.10;;;;;;5075747;28;20393;-67
2023/10/01 09:29:23;;;;;;;3.90;3.60;;;22.60;58.10;;;;;;5075335;28;20495;-66
2023/10/01 09:31:56;;;;;;;4.40;3.87;;;22.50;58.00;;;;;;5075019;28;20896;-66
2023/10/01 09:34:31;;;;;;;3.37;3.07;;;22.50;58.00;;;;;;5075475;28;20960;-65
2023/10/01 09:37:35;;;;;;;4.00;3.20;;;22.60;58.10;;;;;;5074113;28;20483;-67
2023/10/01 09:40:32;;;;;;;3.27;2.97;;;22.60;58.10;;;;;;5074897;28;20384;-66
2023/10/01 09:42:57;;;;;;;3.40;3.10;;;22.60;58.20;;;;;;5075309;28;20435;-67
2023/10/01 09:45:27;;;;;;;4.00;3.60;;;22.50;58.10;;;;;;5075528;28;20978;-66
2023/10/01 09:48:28;;;;;;;2.93;2.40;;;22.60;58.20;;;;;;5075563;28;20775;-67
2023/10/01 09:50:57;;;;;;;3.23;2.80;;;22.60;58.20;;;;;;5074868;28;20987;-67
2023/10/01 09:53:26;;;;;;;3.17;2.87;;;22.60;58.20;;;;;;5074498;28;20420;-66
2023/10/01 09:55:59;;;;;;;3.30;3.00;;;22.60;58.20;;;;;;5074827;28;20511;-66
2023/10/01 09:58:25;;;;;;;3.30;3.00;;;22.60;58.20;;;;;;5074638;28;20381;-66
2023/10/01 10:00:52;;;;;;;5.30;3.50;;;22.60;58.20;;;;;;5074907;28;20886;-67
2023/10/01 10:03:19;;;;;;;3.93;2.90;;;22.60;58.20;;;;;;5074797;28;21116;-66
2023/10/01 10:05:46;;;;;;;4.17;3.23;;;22.60;58.20;;;;;;5074826;28;20448;-66
2023/10/01 10:08:15;;;;;;;3.40;2.60;;;22.60;58.20;;;;;;5074991;28;20420;-67
2023/10/01 10:10:49;;;;;;;3.70;3.40;;;22.60;58.30;;;;;;5074641;28;20459;-66
2023/10/01 10:13:48;;;;;;;3.33;3.00;;;22.60;58.20;;;;;;5075146;28;20830;-67
2023/10/01 10:16:30;;;;;;;4.63;3.40;;;22.60;58.20;;;;;;5074818;28;20415;-66
2023/10/01 10:19:23;;;;;;;3.60;2.90;;;22.60;58.20;;;;;;5074547;28;20399;-67
2023/10/01 10:24:31;;;;;;;3.67;3.37;;;22.60;58.30;;;;;;5075394;28;20436;-65
2023/10/01 10:27:00;;;;;;;2.97;2.77;;;22.60;58.30;;;;;;5074834;28;20511;-66
2023/10/01 10:29:57;;;;;;;2.70;2.50;;;22.60;58.30;;;;;;5074434;28;20435;-66
2023/10/01 10:32:44;;;;;;;3.57;3.23;;;22.60;58.20;;;;;;5074137;28;20955;-65
2023/10/01 10:35:14;;;;;;;3.93;3.10;;;22.60;58.30;;;;;;5074538;28;20408;-66
2023/10/01 10:37:48;;;;;;;4.17;2.83;;;22.60;58.30;;;;;;5074195;28;20432;-66
2023/10/01 10:42:46;;;;;;;3.87;3.20;;;22.60;58.20;;;;;;5074560;28;20440;-66
2023/10/01 10:45:21;;;;;;;3.97;3.67;;;22.60;58.20;;;;;;5073892;28;20405;-66
2023/10/01 10:48:02;;;;;;;5.47;2.70;;;22.60;58.20;;;;;;5073991;28;20895;-64
2023/10/01 10:50:48;;;;;;;4.03;3.63;;;22.60;58.20;;;;;;5073795;28;20412;-68
2023/10/01 10:53:19;;;;;;;3.90;3.50;;;22.60;58.20;;;;;;5073996;28;20436;-66
2023/10/01 10:56:08;;;;;;;3.57;3.10;;;22.60;58.20;;;;;;5073968;28;20405;-67
2023/10/01 10:58:43;;;;;;;3.87;3.43;;;22.60;58.20;;;;;;5074214;28;20389;-67
2023/10/01 11:01:20;;;;;;;3.83;3.30;;;22.60;58.20;;;;;;5073709;28;20434;-67
2023/10/01 11:03:49;;;;;;;5.00;4.03;;;22.60;58.20;;;;;;5073668;28;20515;-67
2023/10/01 11:06:41;;;;;;;4.83;3.30;;;22.60;58.20;;;;;;5072267;28;20409;-66
2023/10/01 11:09:25;;;;;;;3.40;3.10;;;22.60;58.20;;;;;;5072250;28;20397;-66
2023/10/01 11:11:53;;;;;;;4.13;3.10;;;22.60;58.20;;;;;;5072000;28;20447;-66
2023/10/01 11:14:20;;;;;;;4.10;3.10;;;22.60;58.30;;;;;;5071902;28;20523;-65
2023/10/01 11:16:47;;;;;;;3.43;3.10;;;22.60;58.30;;;;;;5072043;28;20412;-68
2023/10/01 11:19:16;;;;;;;3.70;3.40;;;22.60;58.30;;;;;;5070725;28;20439;-66
2023/10/01 11:21:58;;;;;;;3.57;3.23;;;22.60;58.20;;;;;;5070654;28;20409;-68
2023/10/01 11:24:32;;;;;;;3.30;3.00;;;22.60;58.20;;;;;;5071531;28;20428;-66
2023/10/01 11:30:13;;;;;;;3.70;3.07;;;22.70;58.30;;;;;;5071681;28;20391;-67
2023/10/01 11:32:58;;;;;;;4.80;3.50;;;22.60;58.30;;;;;;5071243;28;20412;-67
2023/10/01 11:36:09;;;;;;;4.00;3.20;;;22.60;58.30;;;;;;5070521;28;20917;-67
2023/10/01 11:38:44;;;;;;;4.50;3.13;;;22.60;58.30;;;;;;5071260;28;20475;-67
2023/10/01 11:41:10;;;;;;;4.00;3.23;;;22.60;58.30;;;;;;5071214;28;20396;-67
2023/10/01 11:43:40;;;;;;;3.70;3.40;;;22.60;58.30;;;;;;5071063;28;20425;-65
2023/10/01 11:46:24;;;;;;;4.77;3.90;;;22.60;58.30;;;;;;5071204;28;20662;-66
2023/10/01 11:48:57;;;;;;;4.57;3.40;;;22.70;58.30;;;;;;5071342;28;20474;-66
2023/10/01 11:51:31;;;;;;;3.97;3.67;;;22.70;58.40;;;;;;5071194;28;20506;-65
2023/10/01 11:53:58;;;;;;;3.57;3.23;;;22.70;58.40;;;;;;5071162;28;20863;-67
2023/10/01 11:56:23;;;;;;;5.40;3.80;;;22.70;58.30;;;;;;5071026;28;20416;-67
2023/10/01 11:58:49;;;;;;;3.97;3.30;;;22.60;58.30;;;;;;5070946;28;20454;-68
2023/10/01 12:01:15;;;;;;;5.40;3.83;;;22.60;58.30;;;;;;5070942;28;20182;-65
2023/10/01 12:03:40;;;;;;;5.43;4.47;;;22.70;58.30;;;;;;5070473;28;20938;-68
2023/10/01 12:06:06;;;;;;;4.23;3.40;;;22.70;58.30;;;;;;5070821;28;20177;-67
2023/10/01 12:08:35;;;;;;;4.90;3.57;;;22.70;58.30;;;;;;5070875;28;20182;-67
2023/10/01 12:14:04;;;;;;;4.00;3.60;;;22.70;58.30;;;;;;5070773;28;20426;-66
2023/10/01 12:16:30;;;;;;;5.67;3.50;;;22.70;58.30;;;;;;5070890;28;20396;-66
2023/10/01 12:19:22;;;;;;;4.07;3.47;;;22.70;58.30;;;;;;5070929;28;20420;-68
2023/10/01 12:21:41;;;;;;;4.90;3.53;;;22.70;58.30;;;;;;5070691;28;20428;-67
2023/10/01 12:24:12;;;;;;;6.30;3.87;;;22.70;58.30;;;;;;5070724;28;20861;-67
2023/10/01 12:26:39;;;;;;;5.00;3.70;;;22.70;58.80;;;;;;5071024;28;20170;-68
2023/10/01 12:29:11;;;;;;;6.37;4.10;;;22.70;58.30;;;;;;5069352;28;20860;-66
2023/10/01 12:31:37;;;;;;;6.10;3.80;;;22.70;58.20;;;;;;5070600;28;20444;-67
2023/10/01 12:34:03;;;;;;;6.10;3.70;;;22.70;58.30;;;;;;5070577;28;21292;-67
2023/10/01 12:36:32;;;;;;;5.07;3.40;;;22.70;58.20;;;;;;5070648;28;20167;-68
2023/10/01 12:41:56;;;;;;;5.20;3.60;;;22.70;58.20;;;;;;5071012;28;20408;-68
2023/10/01 12:44:28;;;;;;;4.43;3.50;;;22.70;58.20;;;;;;5070474;28;20493;-67
2023/10/01 12:47:15;;;;;;;4.83;3.00;;;22.70;58.20;;;;;;5073473;28;20417;-67
2023/10/01 12:49:42;;;;;;;3.90;3.50;;;22.70;58.20;;;;;;5074529;28;20948;-67
2023/10/01 12:52:09;;;;;;;3.97;3.57;;;22.70;58.20;;;;;;5074284;28;20568;-66
2023/10/01 12:54:38;;;;;;;5.40;4.07;;;22.70;58.20;;;;;;5074508;28;20420;-68
2023/10/01 12:57:22;;;;;;;4.13;3.50;;;22.70;58.20;;;;;;5075180;28;20405;-67
2023/10/01 13:00:21;;;;;;;5.63;3.43;;;22.70;58.30;;;;;;5073998;28;20768;-67
2023/10/01 13:02:43;;;;;;;4.80;3.13;;;22.70;58.20;;;;;;5074444;28;20408;-68
2023/10/01 13:05:23;;;;;;;4.00;3.10;;;22.70;58.20;;;;;;5074701;28;20829;-66
2023/10/01 13:07:50;;;;;;;5.03;4.00;;;22.70;58.20;;;;;;5074773;28;20416;-66
2023/10/01 13:10:18;;;;;;;6.07;3.67;;;22.70;58.20;;;;;;5072775;28;20419;-68
2023/10/01 13:12:56;;;;;;;4.40;4.00;;;22.70;58.20;;;;;;5073954;28;20424;-68
2023/10/01 13:15:33;;;;;;;4.10;2.93;;;22.70;58.20;;;;;;5073920;28;20388;-67
2023/10/01 13:18:09;;;;;;;4.50;3.17;;;22.70;58.20;;;;;;5074012;28;20383;-67
2023/10/01 13:20:58;;;;;;;3.50;3.20;;;22.70;58.20;;;;;;5073843;28;20473;-68
2023/10/01 13:23:28;;;;;;;5.03;3.70;;;22.70;58.20;;;;;;5074534;28;20478;-68
2023/10/01 13:26:09;;;;;;;5.03;3.80;;;22.70;58.20;;;;;;5074058;28;20401;-65
2023/10/01 13:28:50;;;;;;;4.13;3.73;;;22.70;58.20;;;;;;5073735;28;20391;-67
2023/10/01 13:34:10;;;;;;;4.20;3.63;;;22.70;58.10;;;;;;5073895;28;20420;-67
2023/10/01 13:39:44;;;;;;;4.97;4.30;;;22.70;58.20;;;;;;5074017;28;20385;-66
2023/10/01 14:09:47;;;;;;;4.77;3.57;;;22.70;58.20;;;;;;5073291;28;20392;-65
2023/10/01 14:15:21;;;;;;;5.73;3.73;;;22.70;58.10;;;;;;5073271;28;20420;-67
2023/10/01 14:17:52;;;;;;;5.67;3.70;;;22.70;58.10;;;;;;5072844;28;20492;-67
2023/10/01 14:20:37;;;;;;;7.33;3.83;;;22.70;58.10;;;;;;5072888;28;20964;-65
2023/10/01 14:23:07;;;;;;;9.03;4.10;;;22.70;58.20;;;;;;5072781;28;20446;-66
2023/10/01 14:25:52;;;;;;;6.40;4.20;;;22.70;58.10;;;;;;5072925;28;20416;-66
2023/10/01 14:28:22;;;;;;;4.90;3.60;;;22.70;58.10;;;;;;5072744;28;20445;-63
2023/10/01 14:30:51;;;;;;;5.63;3.50;;;22.70;58.10;;;;;;5072591;28;20463;-66
2023/10/01 14:33:24;;;;;;;6.50;3.87;;;22.70;58.70;;;;;;5072448;28;20468;-66
2023/10/01 14:35:54;;;;;;;5.83;4.03;;;22.70;58.10;;;;;;5072758;28;20414;-66